createdAt,value
2019-02-28T00:00:17.663Z,60.00
2019-02-28T00:01:17.687Z,58.50
2019-02-28T00:02:21.191Z,64.00
2019-02-28T00:03:17.600Z,65.40
2019-02-28T00:04:17.589Z,63.80
2019-02-28T00:05:17.571Z,65.70
2019-02-28T00:06:17.624Z,68.00
2019-02-28T00:07:17.922Z,63.80
2019-02-28T00:08:17.565Z,63.20
2019-02-28T00:09:17.538Z,61.20
2019-02-28T00:10:17.544Z,58.10
2019-02-28T00:11:17.517Z,61.00
2019-02-28T00:12:17.530Z,65.30
2019-02-28T00:13:21.423Z,62.80
2019-02-28T00:14:17.482Z,63.90
2019-02-28T00:15:17.465Z,66.90
2019-02-28T00:16:17.457Z,63.30
2019-02-28T00:17:17.516Z,64.90
2019-02-28T00:18:17.520Z,60.20
2019-02-28T00:19:17.431Z,61.80
2019-02-28T00:20:17.418Z,62.00
2019-02-28T00:21:17.466Z,61.10
2019-02-28T00:22:17.401Z,60.80
2019-02-28T00:23:19.212Z,64.00
2019-02-28T00:24:17.494Z,64.90
2019-02-28T00:25:17.350Z,65.60
2019-02-28T00:26:17.399Z,65.80
2019-02-28T00:27:20.963Z,61.10
2019-02-28T00:28:17.463Z,64.80
2019-02-28T00:29:17.345Z,64.20
2019-02-28T00:30:17.394Z,65.60
2019-02-28T00:31:17.319Z,61.50
2019-02-28T00:32:17.309Z,60.20
2019-02-28T00:33:17.266Z,65.50
2019-02-28T00:34:17.295Z,64.70
2019-02-28T00:35:17.247Z,63.50
2019-02-28T00:36:19.298Z,64.90
2019-02-28T00:37:17.247Z,61.90
2019-02-28T00:38:17.210Z,67.00
2019-02-28T00:39:17.236Z,64.30
2019-02-28T00:40:17.201Z,63.10
2019-02-28T00:41:17.199Z,64.70
2019-02-28T00:42:17.678Z,63.60
2019-02-28T00:43:17.209Z,62.60
2019-02-28T00:44:17.179Z,66.90
2019-02-28T00:45:17.188Z,63.40
2019-02-28T00:46:17.245Z,64.40
2019-02-28T00:47:17.189Z,65.50
2019-02-28T00:48:18.234Z,63.00
2019-02-28T00:49:17.135Z,64.00
2019-02-28T00:50:17.096Z,68.20
2019-02-28T00:51:17.081Z,69.30
2019-02-28T00:52:17.070Z,68.50
2019-02-28T00:53:17.093Z,65.60
2019-02-28T00:54:17.092Z,67.00
2019-02-28T00:55:17.028Z,68.70
2019-02-28T00:56:17.812Z,64.90
2019-02-28T00:57:17.007Z,68.40
2019-02-28T00:58:17.033Z,68.40
2019-02-28T00:59:16.985Z,71.60
2019-02-28T01:00:17.001Z,68.00
2019-02-28T01:01:16.965Z,67.90
2019-02-28T01:02:17.659Z,69.80
2019-02-28T01:03:16.951Z,67.60
2019-02-28T01:04:16.947Z,69.00
2019-02-28T01:05:16.987Z,70.90
2019-02-28T01:06:16.905Z,70.60
2019-02-28T01:07:17.023Z,73.10
2019-02-28T01:08:19.107Z,68.40
2019-02-28T01:09:17.878Z,72.70
2019-02-28T01:10:16.957Z,71.20
2019-02-28T01:11:16.857Z,74.10
2019-02-28T01:12:19.346Z,74.10
2019-02-28T01:13:16.836Z,75.00
2019-02-28T01:14:16.836Z,72.70
2019-02-28T01:15:16.827Z,74.80
2019-02-28T01:16:19.323Z,75.80
2019-02-28T01:17:16.798Z,74.50
2019-02-28T01:18:16.795Z,75.90
2019-02-28T01:19:16.839Z,76.10
2019-02-28T01:20:16.868Z,73.30
2019-02-28T01:21:16.819Z,78.20
2019-02-28T01:22:16.742Z,79.10
2019-02-28T01:23:16.739Z,78.20
2019-02-28T01:24:16.712Z,78.70
2019-02-28T01:25:16.704Z,77.90
2019-02-28T01:26:16.720Z,73.90
2019-02-28T01:27:17.377Z,77.60
2019-02-28T01:28:16.681Z,80.60
2019-02-28T01:29:16.668Z,77.30
2019-02-28T01:30:16.715Z,76.90
2019-02-28T01:31:16.723Z,79.00
2019-02-28T01:32:16.656Z,76.00
2019-02-28T01:33:16.664Z,80.50
2019-02-28T01:34:16.601Z,81.30
2019-02-28T01:35:16.688Z,79.50
2019-02-28T01:36:16.641Z,76.70
2019-02-28T01:37:16.590Z,79.40
2019-02-28T01:38:16.599Z,83.80
2019-02-28T01:39:16.551Z,82.10
2019-02-28T01:40:16.574Z,81.70
2019-02-28T01:41:16.572Z,81.40
2019-02-28T01:42:19.970Z,83.10
2019-02-28T01:43:16.505Z,82.00
2019-02-28T01:44:16.512Z,84.70
2019-02-28T01:45:16.526Z,84.10
2019-02-28T01:46:17.208Z,79.20
2019-02-28T01:47:19.953Z,84.10
2019-02-28T01:48:16.455Z,85.50
2019-02-28T01:49:16.454Z,85.80
2019-02-28T01:50:16.459Z,84.20
2019-02-28T01:51:16.445Z,90.10
2019-02-28T01:52:16.472Z,86.60
2019-02-28T01:53:19.571Z,90.00
2019-02-28T01:54:17.464Z,85.90
2019-02-28T01:55:16.384Z,85.20
2019-02-28T01:56:16.372Z,89.60
2019-02-28T01:57:16.420Z,92.50
2019-02-28T01:58:17.384Z,88.40
2019-02-28T01:59:16.401Z,88.70
2019-02-28T02:00:16.348Z,91.00
2019-02-28T02:01:16.314Z,88.20
2019-02-28T02:02:16.303Z,89.50
2019-02-28T02:03:16.418Z,89.20
2019-02-28T02:04:16.283Z,90.60
2019-02-28T02:05:17.303Z,89.40
2019-02-28T02:06:16.275Z,89.70
2019-02-28T02:07:16.287Z,88.00
2019-02-28T02:08:16.307Z,88.70
2019-02-28T02:09:16.228Z,95.90
2019-02-28T02:10:17.605Z,87.80
2019-02-28T02:11:16.270Z,91.10
2019-02-28T02:12:16.192Z,93.40
2019-02-28T02:13:16.274Z,93.00
2019-02-28T02:14:16.179Z,95.50
2019-02-28T02:15:16.887Z,94.20
2019-02-28T02:16:16.149Z,91.60
2019-02-28T02:17:16.215Z,94.20
2019-02-28T02:18:16.141Z,94.10
2019-02-28T02:19:18.550Z,93.10
2019-02-28T02:20:16.103Z,94.80
2019-02-28T02:21:16.150Z,91.10
2019-02-28T02:22:16.174Z,93.00
2019-02-28T02:23:18.210Z,93.80
2019-02-28T02:24:16.183Z,95.10
2019-02-28T02:25:16.088Z,99.90
2019-02-28T02:26:16.073Z,93.20
2019-02-28T02:27:16.253Z,96.60
2019-02-28T02:28:16.091Z,96.60
2019-02-28T02:29:16.070Z,97.30
2019-02-28T02:30:16.326Z,93.10
2019-02-28T02:31:15.994Z,93.90
2019-02-28T02:32:15.995Z,97.30
2019-02-28T02:33:16.002Z,103.40
2019-02-28T02:34:15.993Z,100.00
2019-02-28T02:35:15.963Z,97.90
2019-02-28T02:36:17.520Z,102.40
2019-02-28T02:37:15.949Z,101.40
2019-02-28T02:38:15.917Z,100.10
2019-02-28T02:39:17.590Z,99.70
2019-02-28T02:40:15.952Z,102.80
2019-02-28T02:41:15.878Z,101.30
2019-02-28T02:42:15.916Z,104.40
2019-02-28T02:43:15.869Z,100.30
2019-02-28T02:44:15.869Z,105.70
2019-02-28T02:45:15.868Z,106.40
2019-02-28T02:46:20.185Z,100.80
2019-02-28T02:47:16.821Z,102.20
2019-02-28T02:48:15.836Z,106.40
2019-02-28T02:49:19.902Z,100.50
2019-02-28T02:50:15.825Z,96.80
2019-02-28T02:51:15.774Z,102.70
2019-02-28T02:52:15.776Z,100.00
2019-02-28T02:53:15.756Z,103.20
2019-02-28T02:54:19.694Z,100.20
2019-02-28T02:55:15.804Z,103.50
2019-02-28T02:56:15.738Z,93.50
2019-02-28T02:57:15.851Z,101.30
2019-02-28T02:58:15.693Z,100.10
2019-02-28T02:59:15.717Z,99.60
2019-02-28T03:00:15.778Z,111.20
2019-02-28T03:01:15.660Z,106.90
2019-02-28T03:02:15.671Z,109.60
2019-02-28T03:03:15.647Z,107.90
2019-02-28T03:04:21.447Z,104.00
2019-02-28T03:05:16.669Z,109.40
2019-02-28T03:06:15.627Z,108.00
2019-02-28T03:07:23.318Z,110.70
2019-02-28T03:08:16.594Z,111.10
2019-02-28T03:09:15.589Z,109.90
2019-02-28T03:10:17.290Z,110.90
2019-02-28T03:11:15.579Z,112.70
2019-02-28T03:12:15.572Z,111.20
2019-02-28T03:13:15.537Z,109.90
2019-02-28T03:14:17.315Z,111.60
2019-02-28T03:15:15.515Z,110.60
2019-02-28T03:16:15.587Z,112.70
2019-02-28T03:17:15.485Z,113.10
2019-02-28T03:18:20.576Z,110.40
2019-02-28T03:19:16.475Z,112.80
2019-02-28T03:20:15.461Z,116.80
2019-02-28T03:21:16.506Z,111.10
2019-02-28T03:22:15.518Z,118.60
2019-02-28T03:23:15.446Z,114.90
2019-02-28T03:24:16.429Z,114.30
2019-02-28T03:25:15.410Z,116.40
2019-02-28T03:26:15.453Z,116.20
2019-02-28T03:27:19.083Z,117.10
2019-02-28T03:28:15.371Z,119.80
2019-02-28T03:29:15.397Z,117.00
2019-02-28T03:30:26.044Z,109.40
2019-02-28T03:31:16.405Z,115.00
2019-02-28T03:32:15.400Z,119.40
2019-02-28T03:33:27.393Z,117.90
2019-02-28T03:34:16.369Z,122.90
2019-02-28T03:35:15.308Z,112.60
2019-02-28T03:36:16.711Z,118.90
2019-02-28T03:37:15.297Z,118.00
2019-02-28T03:38:15.319Z,117.60
2019-02-28T03:39:15.283Z,122.50
2019-02-28T03:40:15.252Z,121.70
2019-02-28T03:41:17.758Z,113.70
2019-02-28T03:42:15.233Z,119.80
2019-02-28T03:43:15.295Z,124.20
2019-02-28T03:44:19.803Z,121.10
2019-02-28T03:45:16.238Z,114.30
2019-02-28T03:46:15.197Z,131.50
2019-02-28T03:47:15.165Z,126.30
2019-02-28T03:48:15.178Z,127.40
2019-02-28T03:49:15.208Z,128.40
2019-02-28T03:50:15.170Z,120.70
2019-02-28T03:51:15.138Z,126.40
2019-02-28T03:52:15.127Z,125.80
2019-02-28T03:53:19.232Z,126.50
2019-02-28T03:54:16.212Z,123.30
2019-02-28T03:55:15.114Z,129.90
2019-02-28T03:56:16.029Z,121.40
2019-02-28T03:57:15.055Z,122.20
2019-02-28T03:58:15.078Z,130.60
2019-02-28T03:59:18.933Z,132.10
2019-02-28T04:00:16.092Z,124.50
2019-02-28T04:01:15.004Z,127.70
2019-02-28T04:02:20.801Z,125.50
2019-02-28T04:03:16.687Z,126.10
2019-02-28T04:04:14.969Z,130.40
2019-02-28T04:05:14.977Z,127.50
2019-02-28T04:06:14.950Z,132.20
2019-02-28T04:07:15.983Z,129.90
2019-02-28T04:08:14.989Z,132.00
2019-02-28T04:09:14.961Z,130.40
2019-02-28T04:10:16.787Z,130.60
2019-02-28T04:11:15.921Z,133.60
2019-02-28T04:12:14.937Z,127.80
2019-02-28T04:13:19.310Z,129.90
2019-02-28T04:14:15.986Z,131.00
2019-02-28T04:15:14.879Z,130.30
2019-02-28T04:16:14.918Z,136.90
2019-02-28T04:17:14.857Z,135.40
2019-02-28T04:18:14.830Z,127.60
2019-02-28T04:19:21.209Z,139.00
2019-02-28T04:20:15.888Z,139.10
2019-02-28T04:21:14.803Z,141.20
2019-02-28T04:22:14.851Z,134.10
2019-02-28T04:23:14.773Z,132.90
2019-02-28T04:24:14.768Z,133.70
2019-02-28T04:25:14.842Z,138.30
2019-02-28T04:26:14.829Z,134.00
2019-02-28T04:27:14.737Z,132.80
2019-02-28T04:28:18.718Z,135.90
2019-02-28T04:29:14.763Z,135.90
2019-02-28T04:30:14.698Z,133.20
2019-02-28T04:31:18.725Z,137.30
2019-02-28T04:32:15.681Z,134.30
2019-02-28T04:33:14.663Z,130.40
2019-02-28T04:34:14.711Z,140.10
2019-02-28T04:35:14.640Z,136.00
2019-02-28T04:36:14.690Z,135.20
2019-02-28T04:37:14.619Z,129.00
2019-02-28T04:38:14.611Z,139.10
2019-02-28T04:39:14.619Z,140.00
2019-02-28T04:40:14.627Z,137.60
2019-02-28T04:41:14.670Z,135.40
2019-02-28T04:42:14.565Z,136.50
2019-02-28T04:43:14.564Z,136.30
2019-02-28T04:44:15.364Z,138.60
2019-02-28T04:45:14.554Z,134.20
2019-02-28T04:46:15.376Z,140.10
2019-02-28T04:47:14.622Z,136.40
2019-02-28T04:48:14.692Z,135.60
2019-02-28T04:49:14.500Z,141.60
2019-02-28T04:50:14.538Z,140.30
2019-02-28T04:51:14.506Z,138.90
2019-02-28T04:52:14.453Z,140.50
2019-02-28T04:53:14.440Z,137.00
2019-02-28T04:54:14.500Z,141.30
2019-02-28T04:55:14.542Z,139.00
2019-02-28T04:56:14.453Z,135.80
2019-02-28T04:57:17.426Z,142.70
2019-02-28T04:58:15.503Z,142.30
2019-02-28T04:59:14.400Z,137.80
2019-02-28T05:00:14.379Z,147.40
2019-02-28T05:01:14.406Z,139.90
2019-02-28T05:02:19.616Z,139.70
2019-02-28T05:03:15.334Z,141.60
2019-02-28T05:04:14.349Z,142.20
2019-02-28T05:05:14.345Z,141.70
2019-02-28T05:06:14.315Z,147.40
2019-02-28T05:07:14.317Z,145.70
2019-02-28T05:08:14.281Z,150.20
2019-02-28T05:09:15.114Z,142.30
2019-02-28T05:10:14.290Z,146.70
2019-02-28T05:11:14.296Z,151.20
2019-02-28T05:12:14.403Z,150.10
2019-02-28T05:13:14.946Z,142.30
2019-02-28T05:14:14.208Z,148.10
2019-02-28T05:15:14.275Z,144.50
2019-02-28T05:16:14.224Z,145.00
2019-02-28T05:17:14.293Z,145.30
2019-02-28T05:18:14.174Z,153.40
2019-02-28T05:19:14.185Z,152.10
2019-02-28T05:20:14.150Z,157.50
2019-02-28T05:21:16.472Z,150.30
2019-02-28T05:22:15.184Z,146.50
2019-02-28T05:23:14.115Z,153.50
2019-02-28T05:24:14.132Z,151.40
2019-02-28T05:25:17.796Z,150.80
2019-02-28T05:26:14.083Z,150.00
2019-02-28T05:27:14.067Z,149.50
2019-02-28T05:28:14.129Z,148.10
2019-02-28T05:29:14.055Z,146.40
2019-02-28T05:30:17.987Z,153.80
2019-02-28T05:31:15.043Z,155.80
2019-02-28T05:32:14.080Z,150.20
2019-02-28T05:33:14.889Z,147.40
2019-02-28T05:34:15.963Z,152.90
2019-02-28T05:35:14.039Z,155.00
2019-02-28T05:36:14.011Z,154.20
2019-02-28T05:37:13.965Z,157.10
2019-02-28T05:38:14.071Z,154.60
2019-02-28T05:39:14.010Z,156.00
2019-02-28T05:40:13.941Z,157.60
2019-02-28T05:41:15.345Z,165.80
2019-02-28T05:42:13.967Z,155.90
2019-02-28T05:43:13.934Z,158.20
2019-02-28T05:44:13.899Z,164.90
2019-02-28T05:45:14.889Z,168.90
2019-02-28T05:46:13.891Z,164.80
2019-02-28T05:47:13.886Z,171.60
2019-02-28T05:48:13.887Z,165.40
2019-02-28T05:49:13.864Z,163.60
2019-02-28T05:50:16.598Z,172.50
2019-02-28T05:51:13.868Z,167.40
2019-02-28T05:52:13.805Z,166.30
2019-02-28T05:53:13.832Z,165.10
2019-02-28T05:54:16.931Z,170.50
2019-02-28T05:55:13.774Z,175.80
2019-02-28T05:56:13.777Z,178.00
2019-02-28T05:57:13.745Z,174.00
2019-02-28T05:58:17.573Z,169.90
2019-02-28T05:59:13.725Z,186.10
2019-02-28T06:00:13.803Z,178.80
2019-02-28T06:01:13.748Z,179.70
2019-02-28T06:02:13.703Z,180.80
2019-02-28T06:03:13.705Z,175.80
2019-02-28T06:04:13.679Z,186.10
2019-02-28T06:05:13.685Z,183.00
2019-02-28T06:06:13.661Z,186.30
2019-02-28T06:07:13.661Z,188.20
2019-02-28T06:08:13.672Z,181.10
2019-02-28T06:09:14.739Z,185.50
2019-02-28T06:10:13.704Z,195.20
2019-02-28T06:11:15.297Z,191.70
2019-02-28T06:12:13.591Z,190.00
2019-02-28T06:13:15.354Z,176.50
2019-02-28T06:14:13.590Z,185.70
2019-02-28T06:15:13.558Z,179.50
2019-02-28T06:16:13.557Z,192.70
2019-02-28T06:17:13.544Z,183.40
2019-02-28T06:18:13.545Z,188.90
2019-02-28T06:19:13.576Z,188.00
2019-02-28T06:20:16.523Z,188.50
2019-02-28T06:21:13.487Z,183.10
2019-02-28T06:22:13.481Z,184.50
2019-02-28T06:23:13.476Z,183.60
2019-02-28T06:24:13.595Z,192.30
2019-02-28T06:25:22.180Z,183.20
2019-02-28T06:26:14.455Z,188.50
2019-02-28T06:27:13.419Z,186.00
2019-02-28T06:28:13.413Z,190.80
2019-02-28T06:29:13.408Z,193.10
2019-02-28T06:30:13.431Z,190.40
2019-02-28T06:31:14.301Z,194.70
2019-02-28T06:32:13.738Z,191.60
2019-02-28T06:33:13.360Z,188.30
2019-02-28T06:34:13.436Z,201.70
2019-02-28T06:35:15.927Z,200.60
2019-02-28T06:36:13.901Z,201.40
2019-02-28T06:37:13.498Z,197.30
2019-02-28T06:38:16.231Z,197.70
2019-02-28T06:39:14.333Z,198.30
2019-02-28T06:40:13.368Z,196.80
2019-02-28T06:41:13.348Z,197.20
2019-02-28T06:42:13.251Z,199.70
2019-02-28T06:43:14.179Z,194.90
2019-02-28T06:44:13.277Z,198.70
2019-02-28T06:45:13.230Z,197.20
2019-02-28T06:46:13.246Z,190.80
2019-02-28T06:47:14.250Z,203.80
2019-02-28T06:48:13.211Z,192.60
2019-02-28T06:49:13.219Z,179.60
2019-02-28T06:50:13.793Z,195.40
2019-02-28T06:51:13.189Z,194.60
2019-02-28T06:52:13.164Z,178.40
2019-02-28T06:53:13.130Z,187.90
2019-02-28T06:54:13.163Z,189.40
2019-02-28T06:55:13.371Z,192.10
2019-02-28T06:56:13.172Z,196.50
2019-02-28T06:57:13.119Z,191.90
2019-02-28T06:58:13.076Z,191.80
2019-02-28T06:59:13.071Z,188.40
2019-02-28T07:00:14.231Z,182.20
2019-02-28T07:01:13.067Z,182.20
2019-02-28T07:02:13.072Z,184.40
2019-02-28T07:03:13.082Z,174.70
2019-02-28T07:04:14.536Z,174.70
2019-02-28T07:05:13.020Z,180.70
2019-02-28T07:06:13.022Z,179.60
2019-02-28T07:07:13.708Z,178.50
2019-02-28T07:08:13.102Z,189.60
2019-02-28T07:09:12.959Z,177.00
2019-02-28T07:10:13.395Z,173.90
2019-02-28T07:11:12.951Z,178.10
2019-02-28T07:12:13.329Z,185.70
2019-02-28T07:13:12.962Z,177.60
2019-02-28T07:14:13.767Z,175.40
2019-02-28T07:15:12.894Z,169.60
2019-02-28T07:16:12.902Z,173.00
2019-02-28T07:17:12.873Z,170.40
2019-02-28T07:18:12.883Z,168.30
2019-02-28T07:19:12.846Z,165.70
2019-02-28T07:20:12.831Z,164.10
2019-02-28T07:21:12.826Z,164.10
2019-02-28T07:22:19.249Z,163.20
2019-02-28T07:23:13.825Z,163.30
2019-02-28T07:24:13.001Z,166.80
2019-02-28T07:25:13.830Z,166.10
2019-02-28T07:26:12.783Z,164.20
2019-02-28T07:27:12.812Z,161.40
2019-02-28T07:28:12.799Z,164.90
2019-02-28T07:29:12.751Z,162.20
2019-02-28T07:30:17.286Z,154.80
2019-02-28T07:31:13.733Z,153.00
2019-02-28T07:32:12.785Z,154.00
2019-02-28T07:33:12.726Z,159.80
2019-02-28T07:34:12.720Z,153.70
2019-02-28T07:35:12.695Z,145.70
2019-02-28T07:36:12.658Z,149.70
2019-02-28T07:37:12.670Z,147.80
2019-02-28T07:38:12.743Z,149.00
2019-02-28T07:39:12.628Z,145.90
2019-02-28T07:40:16.018Z,150.10
2019-02-28T07:41:12.604Z,147.00
2019-02-28T07:42:12.633Z,150.90
2019-02-28T07:43:13.263Z,144.80
2019-02-28T07:44:12.599Z,143.80
2019-02-28T07:45:12.673Z,149.90
2019-02-28T07:46:12.582Z,150.40
2019-02-28T07:47:17.172Z,147.30
2019-02-28T07:48:12.530Z,146.60
2019-02-28T07:49:12.603Z,138.70
2019-02-28T07:50:12.513Z,142.90
2019-02-28T07:51:12.497Z,135.70
2019-02-28T07:52:12.508Z,136.60
2019-02-28T07:53:12.493Z,129.90
2019-02-28T07:54:15.837Z,131.70
2019-02-28T07:55:12.481Z,129.10
2019-02-28T07:56:12.449Z,130.30
2019-02-28T07:57:17.007Z,138.40
2019-02-28T07:58:13.502Z,128.90
2019-02-28T07:59:12.475Z,129.70
2019-02-28T08:00:16.828Z,130.20
2019-02-28T08:01:13.386Z,129.10
2019-02-28T08:02:12.509Z,126.90
2019-02-28T08:03:12.370Z,121.10
2019-02-28T08:04:12.440Z,118.70
2019-02-28T08:05:12.405Z,115.70
2019-02-28T08:06:12.346Z,117.70
2019-02-28T08:07:14.877Z,119.70
2019-02-28T08:08:13.272Z,118.00
2019-02-28T08:09:12.309Z,125.00
2019-02-28T08:10:12.814Z,121.00
2019-02-28T08:11:12.337Z,112.70
2019-02-28T08:12:12.313Z,109.70
2019-02-28T08:13:12.293Z,117.20
2019-02-28T08:14:12.948Z,114.70
2019-02-28T08:15:13.652Z,114.70
2019-02-28T08:16:12.250Z,103.50
2019-02-28T08:17:12.243Z,110.60
2019-02-28T08:18:12.211Z,114.00
2019-02-28T08:19:12.223Z,109.30
2019-02-28T08:20:12.200Z,111.90
2019-02-28T08:21:12.213Z,109.30
2019-02-28T08:22:12.160Z,106.20
2019-02-28T08:23:12.780Z,106.90
2019-02-28T08:24:12.160Z,103.50
2019-02-28T08:25:12.131Z,104.40
2019-02-28T08:26:15.534Z,103.20
2019-02-28T08:27:13.115Z,104.10
2019-02-28T08:28:12.093Z,106.20
2019-02-28T08:29:12.086Z,110.10
2019-02-28T08:30:12.146Z,113.20
2019-02-28T08:31:12.146Z,110.60
2019-02-28T08:32:12.094Z,108.10
2019-02-28T08:33:12.042Z,114.60
2019-02-28T08:34:12.347Z,111.50
2019-02-28T08:35:12.020Z,121.30
2019-02-28T08:36:12.719Z,109.40
2019-02-28T08:37:11.995Z,111.40
2019-02-28T08:38:11.998Z,117.40
2019-02-28T08:39:12.073Z,120.50
2019-02-28T08:40:12.554Z,117.70
2019-02-28T08:41:11.986Z,123.80
2019-02-28T08:42:12.017Z,116.00
2019-02-28T08:43:13.559Z,119.50
2019-02-28T08:44:12.018Z,121.00
2019-02-28T08:45:11.986Z,119.90
2019-02-28T08:46:13.724Z,127.20
2019-02-28T08:47:11.910Z,122.40
2019-02-28T08:48:12.768Z,127.40
2019-02-28T08:49:11.892Z,120.70
2019-02-28T08:50:11.866Z,120.40
2019-02-28T08:51:11.848Z,121.80
2019-02-28T08:52:12.290Z,119.10
2019-02-28T08:53:12.379Z,120.00
2019-02-28T08:54:11.818Z,119.40
2019-02-28T08:55:11.797Z,118.10
2019-02-28T08:56:14.038Z,116.30
2019-02-28T08:57:13.000Z,116.60
2019-02-28T08:58:11.815Z,117.90
2019-02-28T08:59:12.229Z,123.50
2019-02-28T09:00:11.751Z,120.20
2019-02-28T09:01:12.234Z,119.10
2019-02-28T09:02:14.544Z,121.90
2019-02-28T09:03:12.711Z,122.30
2019-02-28T09:04:11.737Z,123.90
2019-02-28T09:05:11.730Z,120.60
2019-02-28T09:06:11.713Z,120.40
2019-02-28T09:07:14.833Z,119.90
2019-02-28T09:08:14.551Z,119.20
2019-02-28T09:09:11.678Z,119.40
2019-02-28T09:10:12.670Z,125.40
2019-02-28T09:11:11.695Z,119.30
2019-02-28T09:12:11.677Z,126.00
2019-02-28T09:13:11.669Z,121.90
2019-02-28T09:14:14.691Z,123.60
2019-02-28T09:15:12.882Z,122.50
2019-02-28T09:16:11.605Z,127.80
2019-02-28T09:17:11.669Z,122.00
2019-02-28T09:18:12.439Z,122.30
2019-02-28T09:19:11.589Z,126.70
2019-02-28T09:20:11.562Z,120.90
2019-02-28T09:21:15.347Z,118.40
2019-02-28T09:22:11.515Z,120.70
2019-02-28T09:23:11.567Z,120.20
2019-02-28T09:24:12.525Z,117.60
2019-02-28T09:25:22.907Z,123.30
2019-02-28T09:26:16.340Z,112.20
2019-02-28T09:27:12.265Z,115.40
2019-02-28T09:28:13.147Z,114.80
2019-02-28T09:29:11.433Z,114.10
2019-02-28T09:30:11.415Z,109.20
2019-02-28T09:31:11.412Z,111.40
2019-02-28T09:32:13.618Z,106.40
2019-02-28T09:33:11.420Z,107.30
2019-02-28T09:34:11.367Z,99.70
2019-02-28T09:35:14.436Z,103.10
2019-02-28T09:36:11.346Z,104.80
2019-02-28T09:37:11.357Z,101.50
2019-02-28T09:38:13.586Z,104.30
2019-02-28T09:39:12.257Z,103.20
2019-02-28T09:40:11.340Z,97.40
2019-02-28T09:41:11.304Z,100.00
2019-02-28T09:42:14.757Z,98.60
2019-02-28T09:43:11.275Z,97.80
2019-02-28T09:44:11.265Z,97.70
2019-02-28T09:45:11.300Z,96.10
2019-02-28T09:46:12.424Z,103.10
2019-02-28T09:47:11.826Z,106.80
2019-02-28T09:48:11.241Z,99.50
2019-02-28T09:49:12.860Z,98.10
2019-02-28T09:50:11.270Z,102.90
2019-02-28T09:51:11.189Z,104.60
2019-02-28T09:52:11.176Z,103.80
2019-02-28T09:53:15.563Z,101.60
2019-02-28T09:54:11.153Z,100.80
2019-02-28T09:55:11.139Z,102.90
2019-02-28T09:56:11.184Z,105.20
2019-02-28T09:57:11.113Z,100.60
2019-02-28T09:58:11.103Z,98.50
2019-02-28T09:59:11.096Z,101.50
2019-02-28T10:00:11.840Z,101.20
2019-02-28T10:01:11.331Z,97.60
2019-02-28T10:02:11.066Z,101.10
2019-02-28T10:03:11.052Z,102.70
2019-02-28T10:04:11.074Z,103.10
2019-02-28T10:05:11.790Z,100.50
2019-02-28T10:06:16.422Z,103.00
2019-02-28T10:07:11.017Z,99.00
2019-02-28T10:08:11.051Z,97.70
2019-02-28T10:09:11.048Z,98.10
2019-02-28T10:10:10.997Z,95.30
2019-02-28T10:11:11.001Z,95.10
2019-02-28T10:12:11.103Z,102.10
2019-02-28T10:13:10.941Z,97.30
2019-02-28T10:14:12.216Z,96.50
2019-02-28T10:15:10.920Z,95.80
2019-02-28T10:16:13.610Z,99.00
2019-02-28T10:17:11.907Z,101.60
2019-02-28T10:18:10.902Z,98.90
2019-02-28T10:19:13.459Z,94.70
2019-02-28T10:20:10.878Z,96.50
2019-02-28T10:21:10.883Z,97.90
2019-02-28T10:22:12.884Z,101.10
2019-02-28T10:23:10.904Z,102.80
2019-02-28T10:24:10.937Z,97.40
2019-02-28T10:25:10.954Z,97.60
2019-02-28T10:26:10.815Z,94.00
2019-02-28T10:27:26.742Z,97.10
2019-02-28T10:28:10.779Z,94.80
2019-02-28T10:29:10.781Z,92.00
2019-02-28T10:30:15.514Z,92.80
2019-02-28T10:31:11.752Z,96.30
2019-02-28T10:32:10.748Z,89.90
2019-02-28T10:33:17.347Z,90.20
2019-02-28T10:34:10.755Z,90.10
2019-02-28T10:35:10.700Z,91.30
2019-02-28T10:36:13.020Z,85.80
2019-02-28T10:37:10.686Z,89.10
2019-02-28T10:38:10.710Z,89.40
2019-02-28T10:39:10.655Z,88.70
2019-02-28T10:40:10.681Z,87.60
2019-02-28T10:41:10.643Z,92.20
2019-02-28T10:42:10.640Z,95.30
2019-02-28T10:43:12.186Z,90.70
2019-02-28T10:44:11.468Z,92.60
2019-02-28T10:45:10.633Z,92.00
2019-02-28T10:46:13.317Z,90.10
2019-02-28T10:47:11.572Z,93.90
2019-02-28T10:48:10.581Z,90.80
2019-02-28T10:49:39.948Z,89.60
2019-02-28T10:50:10.545Z,93.20
2019-02-28T10:51:13.914Z,90.20
2019-02-28T10:52:10.542Z,89.20
2019-02-28T10:53:10.524Z,84.20
2019-02-28T10:54:14.551Z,88.50
2019-02-28T10:55:10.497Z,88.30
2019-02-28T10:56:10.505Z,89.00
2019-02-28T10:57:10.473Z,85.70
2019-02-28T10:58:12.429Z,89.60
2019-02-28T10:59:11.452Z,88.10
2019-02-28T11:00:10.456Z,87.20
2019-02-28T11:01:10.736Z,93.00
2019-02-28T11:02:13.480Z,86.60
2019-02-28T11:03:11.404Z,87.60
2019-02-28T11:04:10.990Z,86.20
2019-02-28T11:05:10.373Z,86.60
2019-02-28T11:06:10.375Z,88.20
2019-02-28T11:07:26.386Z,88.70
2019-02-28T11:08:12.848Z,84.90
2019-02-28T11:09:10.349Z,83.70
2019-02-28T11:10:10.325Z,82.00
2019-02-28T11:11:10.526Z,88.60
2019-02-28T11:12:10.308Z,82.50
2019-02-28T11:13:10.425Z,86.10
2019-02-28T11:14:10.304Z,84.80
2019-02-28T11:15:13.733Z,84.40
2019-02-28T11:16:10.296Z,86.90
2019-02-28T11:17:13.719Z,84.80
2019-02-28T11:18:10.311Z,84.40
2019-02-28T11:19:18.643Z,85.30
2019-02-28T11:20:10.212Z,86.30
2019-02-28T11:21:10.205Z,86.80
2019-02-28T11:22:10.190Z,87.00
2019-02-28T11:23:14.365Z,89.30
2019-02-28T11:24:10.202Z,86.10
2019-02-28T11:25:10.161Z,89.20
2019-02-28T11:26:10.457Z,89.40
2019-02-28T11:27:10.419Z,84.80
2019-02-28T11:28:10.127Z,87.20
2019-02-28T11:29:10.145Z,87.10
2019-02-28T11:30:10.818Z,86.80
2019-02-28T11:31:11.213Z,89.50
2019-02-28T11:32:10.079Z,90.30
2019-02-28T11:33:10.072Z,91.10
2019-02-28T11:34:11.601Z,89.60
2019-02-28T11:35:10.104Z,89.20
2019-02-28T11:36:10.151Z,90.40
2019-02-28T11:37:10.022Z,90.10
2019-02-28T11:38:10.259Z,92.40
2019-02-28T11:39:20.315Z,88.20
2019-02-28T11:40:09.997Z,93.60
2019-02-28T11:41:09.985Z,86.90
2019-02-28T11:42:09.972Z,90.10
2019-02-28T11:43:09.956Z,92.50
2019-02-28T11:44:12.018Z,96.50
2019-02-28T11:45:09.979Z,95.10
2019-02-28T11:46:09.924Z,93.90
2019-02-28T11:47:11.203Z,98.50
2019-02-28T11:48:09.933Z,94.80
2019-02-28T11:49:09.934Z,98.20
2019-02-28T11:50:09.932Z,98.50
2019-02-28T11:51:09.954Z,97.90
2019-02-28T11:52:09.870Z,97.40
2019-02-28T11:53:09.889Z,98.80
2019-02-28T11:54:12.307Z,101.10
2019-02-28T11:55:09.885Z,102.90
2019-02-28T11:56:09.813Z,99.30
2019-02-28T11:57:09.806Z,98.40
2019-02-28T11:58:09.819Z,102.40
2019-02-28T11:59:09.865Z,100.40
2019-02-28T12:00:09.795Z,102.00
2019-02-28T12:01:10.663Z,98.90
2019-02-28T12:02:09.791Z,104.10
2019-02-28T12:03:09.759Z,105.60
2019-02-28T12:04:09.736Z,100.70
2019-02-28T12:05:12.287Z,100.70
2019-02-28T12:06:10.724Z,101.90
2019-02-28T12:07:09.708Z,99.10
2019-02-28T12:08:10.691Z,102.30
2019-02-28T12:09:09.720Z,102.10
2019-02-28T12:10:09.750Z,100.10
2019-02-28T12:11:09.648Z,103.30
2019-02-28T12:12:10.426Z,101.90
2019-02-28T12:13:09.654Z,99.10
2019-02-28T12:14:09.648Z,96.70
2019-02-28T12:15:09.612Z,99.40
2019-02-28T12:16:09.618Z,100.30
2019-02-28T12:17:09.588Z,102.50
2019-02-28T12:18:09.599Z,99.40
2019-02-28T12:19:12.455Z,100.10
2019-02-28T12:20:10.562Z,100.00
2019-02-28T12:21:09.582Z,99.80
2019-02-28T12:22:12.108Z,99.60
2019-02-28T12:23:09.546Z,101.40
2019-02-28T12:24:09.510Z,102.00
2019-02-28T12:25:09.494Z,99.10
2019-02-28T12:26:09.536Z,96.70
2019-02-28T12:27:09.508Z,98.90
2019-02-28T12:28:09.465Z,96.60
2019-02-28T12:29:12.821Z,94.10
2019-02-28T12:30:09.441Z,95.70
2019-02-28T12:31:09.452Z,96.80
2019-02-28T12:32:11.224Z,97.00
2019-02-28T12:33:09.433Z,94.20
2019-02-28T12:34:09.402Z,96.40
2019-02-28T12:35:09.388Z,94.80
2019-02-28T12:36:11.215Z,92.40
2019-02-28T12:37:09.367Z,92.80